createdAt,value
2023-04-13T00:01:22.474Z,11.20
2023-04-13T00:03:50.940Z,11.23
2023-04-13T00:06:20.193Z,11.22
2023-04-13T00:08:47.763Z,11.33
2023-04-13T00:11:16.415Z,11.17
2023-04-13T00:13:47.381Z,11.18
2023-04-13T00:16:22.448Z,11.19
2023-04-13T00:18:52.576Z,11.31
2023-04-13T00:21:20.759Z,11.08
2023-04-13T00:23:48.183Z,11.10
2023-04-13T00:26:15.795Z,10.94
2023-04-13T00:28:44.915Z,10.96
2023-04-13T00:31:12.493Z,10.97
2023-04-13T00:33:41.712Z,11.01
2023-04-13T00:36:09.950Z,11.09
2023-04-13T00:38:37.917Z,11.14
2023-04-13T00:41:05.725Z,11.25
2023-04-13T00:43:33.771Z,11.33
2023-04-13T00:46:01.356Z,11.44
2023-04-13T00:48:35.181Z,11.36
2023-04-13T00:51:03.926Z,11.39
2023-04-13T00:53:32.017Z,11.29
2023-04-13T00:56:00.537Z,11.32
2023-04-13T00:58:33.441Z,11.27
2023-04-13T01:01:01.009Z,11.32
2023-04-13T01:03:30.877Z,11.30
2023-04-13T01:06:21.319Z,11.23
2023-04-13T01:09:08.416Z,11.36
2023-04-13T01:11:48.695Z,11.40
2023-04-13T01:14:31.734Z,11.37
2023-04-13T01:17:04.272Z,11.33
2023-04-13T01:19:42.702Z,11.43
2023-04-13T01:22:14.487Z,11.23
2023-04-13T01:25:14.716Z,11.39
2023-04-13T01:28:17.977Z,11.15
2023-04-13T01:30:47.667Z,11.09
2023-04-13T01:33:16.285Z,11.14
2023-04-13T01:35:54.750Z,11.08
2023-04-13T01:38:27.085Z,11.14
2023-04-13T01:40:54.544Z,11.13
2023-04-13T01:43:24.243Z,10.96
2023-04-13T01:46:01.274Z,11.02
2023-04-13T01:48:36.136Z,11.17
2023-04-13T01:51:08.687Z,11.33
2023-04-13T01:53:40.345Z,11.30
2023-04-13T01:56:13.167Z,11.12
2023-04-13T01:58:43.969Z,11.14
2023-04-13T02:01:12.876Z,11.28
2023-04-13T02:04:01.874Z,11.02
2023-04-13T02:06:30.142Z,11.16
2023-04-13T02:08:57.684Z,11.02
2023-04-13T02:11:25.986Z,11.06
2023-04-13T02:13:57.668Z,10.99
2023-04-13T02:16:28.437Z,10.99
2023-04-13T02:19:00.307Z,11.19
2023-04-13T02:21:28.376Z,11.21
2023-04-13T02:23:57.526Z,11.24
2023-04-13T02:26:26.398Z,10.81
2023-04-13T02:28:53.848Z,10.89
2023-04-13T02:31:44.239Z,11.13
2023-04-13T02:34:13.080Z,11.01
2023-04-13T02:36:40.592Z,10.98
2023-04-13T02:39:08.560Z,11.02
2023-04-13T02:41:37.913Z,10.84
2023-04-13T02:44:06.415Z,10.89
2023-04-13T02:46:34.255Z,10.82
2023-04-13T02:49:06.013Z,10.80
2023-04-13T02:51:34.031Z,10.50
2023-04-13T02:54:03.424Z,10.62
2023-04-13T02:56:31.974Z,10.47
2023-04-13T02:58:59.907Z,10.44
2023-04-13T03:01:29.665Z,10.69
2023-04-13T03:03:58.587Z,10.52
2023-04-13T03:06:26.108Z,10.70
2023-04-13T03:08:53.925Z,10.67
2023-04-13T03:11:26.387Z,10.84
2023-04-13T03:13:54.298Z,10.64
2023-04-13T03:16:21.844Z,10.97
2023-04-13T03:18:56.226Z,10.95
2023-04-13T03:21:23.781Z,10.98
2023-04-13T03:23:51.337Z,11.02
2023-04-13T03:26:20.234Z,10.99
2023-04-13T03:28:47.828Z,10.94
2023-04-13T03:31:16.080Z,10.95
2023-04-13T03:33:44.511Z,10.98
2023-04-13T03:36:12.454Z,10.57
2023-04-13T03:38:42.736Z,11.03
2023-04-13T03:41:10.558Z,10.99
2023-04-13T03:43:38.199Z,11.11
2023-04-13T03:46:07.999Z,10.83
2023-04-13T03:48:36.041Z,10.69
2023-04-13T03:51:03.572Z,10.83
2023-04-13T03:53:31.528Z,10.75
2023-04-13T03:55:59.137Z,10.90
2023-04-13T03:58:27.401Z,10.95
2023-04-13T04:00:55.899Z,10.89
2023-04-13T04:03:25.900Z,10.76
2023-04-13T04:05:53.657Z,10.61
2023-04-13T04:08:21.258Z,10.78
2023-04-13T04:10:48.937Z,11.08
2023-04-13T04:13:17.225Z,11.01
2023-04-13T04:15:46.562Z,10.85
2023-04-13T04:18:14.055Z,10.67
2023-04-13T04:20:41.754Z,10.84
2023-04-13T04:23:11.224Z,11.10
2023-04-13T04:25:40.652Z,11.18
2023-04-13T04:28:08.746Z,11.04
2023-04-13T04:30:36.174Z,10.96
2023-04-13T04:33:04.873Z,11.07
2023-04-13T04:35:35.809Z,11.01
2023-04-13T04:38:04.510Z,11.28
2023-04-13T04:40:36.165Z,11.35
2023-04-13T04:43:05.029Z,11.21
2023-04-13T04:45:33.268Z,11.15
2023-04-13T04:48:03.354Z,11.13
2023-04-13T04:50:30.973Z,11.02
2023-04-13T04:52:58.393Z,11.16
2023-04-13T04:55:25.856Z,11.04
2023-04-13T04:57:53.439Z,10.80
2023-04-13T05:00:22.000Z,10.81
2023-04-13T05:02:51.334Z,10.85
2023-04-13T05:05:19.279Z,10.82
2023-04-13T05:07:46.853Z,10.75
2023-04-13T05:10:14.703Z,10.82
2023-04-13T05:12:42.799Z,10.83
2023-04-13T05:15:10.591Z,11.00
2023-04-13T05:17:38.754Z,10.94
2023-04-13T05:20:07.348Z,10.77
2023-04-13T05:22:34.908Z,10.69
2023-04-13T05:25:02.260Z,10.49
2023-04-13T05:27:30.066Z,10.63
2023-04-13T05:29:57.429Z,10.58
2023-04-13T05:32:25.011Z,10.82
2023-04-13T05:34:52.787Z,10.94
2023-04-13T05:37:21.562Z,11.00
2023-04-13T05:39:50.184Z,11.06
2023-04-13T05:42:17.628Z,11.22
2023-04-13T05:44:44.998Z,10.92
2023-04-13T05:47:12.796Z,10.81
2023-04-13T05:49:40.445Z,10.56
2023-04-13T05:52:10.630Z,10.71
2023-04-13T05:54:38.251Z,10.87
2023-04-13T05:57:10.165Z,10.53
2023-04-13T05:59:38.531Z,10.89
2023-04-13T06:02:06.299Z,10.87
2023-04-13T06:04:35.156Z,10.58
2023-04-13T06:07:03.133Z,10.88
2023-04-13T06:09:31.152Z,10.98
2023-04-13T06:11:58.564Z,11.21
2023-04-13T06:14:26.365Z,11.34
2023-04-13T06:16:54.360Z,11.36
2023-04-13T06:19:21.974Z,11.32
2023-04-13T06:21:49.465Z,11.22
2023-04-13T06:24:17.660Z,11.39
2023-04-13T06:26:45.162Z,11.30
2023-04-13T06:29:14.221Z,11.60
2023-04-13T06:31:42.131Z,11.72
2023-04-13T06:34:09.701Z,11.54
2023-04-13T06:36:40.677Z,11.70
2023-04-13T06:39:09.494Z,11.86
2023-04-13T06:41:38.009Z,11.78
2023-04-13T06:44:05.727Z,11.91
2023-04-13T06:46:33.638Z,11.88
2023-04-13T06:49:02.897Z,12.00
2023-04-13T06:51:30.760Z,11.82
2023-04-13T06:53:58.125Z,11.97
2023-04-13T06:56:26.134Z,11.83
2023-04-13T06:59:00.820Z,11.71
2023-04-13T07:01:29.898Z,11.93
2023-04-13T07:04:02.626Z,11.97
2023-04-13T07:06:32.224Z,12.00
2023-04-13T07:09:00.007Z,12.15
2023-04-13T07:11:28.483Z,12.21
2023-04-13T07:13:57.466Z,12.22
2023-04-13T07:16:25.001Z,12.27
2023-04-13T07:18:52.483Z,12.43
2023-04-13T07:21:20.422Z,12.57
2023-04-13T07:23:47.897Z,12.70
2023-04-13T07:26:16.315Z,12.68
2023-04-13T07:28:43.959Z,12.86
2023-04-13T07:31:12.197Z,12.86
2023-04-13T07:33:39.704Z,13.15
2023-04-13T07:36:24.253Z,13.06
2023-04-13T07:38:52.553Z,13.20
2023-04-13T07:41:22.698Z,13.25
2023-04-13T07:43:51.267Z,13.43
2023-04-13T07:46:26.439Z,13.48
2023-04-13T07:48:54.325Z,13.56
2023-04-13T07:51:23.374Z,13.46
2023-04-13T07:53:52.732Z,13.48
2023-04-13T07:56:20.304Z,13.59
2023-04-13T07:58:51.036Z,13.53
2023-04-13T08:01:18.877Z,13.56
2023-04-13T08:03:46.402Z,13.46
2023-04-13T08:06:14.095Z,13.49
2023-04-13T08:08:42.002Z,13.60
2023-04-13T08:11:10.141Z,13.65
2023-04-13T08:13:41.099Z,13.82
2023-04-13T08:16:09.647Z,13.79
2023-04-13T08:18:38.550Z,14.13
2023-04-13T08:21:12.590Z,14.09
2023-04-13T08:23:43.208Z,13.85
2023-04-13T08:26:20.671Z,13.88
2023-04-13T08:28:49.212Z,13.34
2023-04-13T08:31:17.448Z,13.13
2023-04-13T08:33:47.030Z,13.18
2023-04-13T08:36:14.402Z,13.09
2023-04-13T08:38:41.998Z,12.91
2023-04-13T08:41:10.629Z,12.66
2023-04-13T08:43:39.332Z,12.59
2023-04-13T08:46:19.613Z,12.53
2023-04-13T08:48:59.075Z,12.71
2023-04-13T08:51:28.831Z,12.74
2023-04-13T08:53:59.337Z,12.48
2023-04-13T08:56:42.145Z,12.53
2023-04-13T08:59:15.497Z,12.82
2023-04-13T09:01:46.479Z,12.88
2023-04-13T09:04:20.225Z,12.78
2023-04-13T09:06:51.166Z,12.54
2023-04-13T09:09:20.683Z,12.58
2023-04-13T09:11:52.114Z,12.73
2023-04-13T09:14:23.095Z,12.79
2023-04-13T09:16:50.942Z,12.95
2023-04-13T09:19:30.436Z,13.02
2023-04-13T09:21:58.615Z,13.10
2023-04-13T09:24:26.130Z,13.12
2023-04-13T09:26:55.897Z,13.07
2023-04-13T09:29:24.847Z,13.05
2023-04-13T09:31:52.408Z,13.27
2023-04-13T09:34:29.658Z,13.48
2023-04-13T09:37:00.968Z,13.10
2023-04-13T09:39:29.504Z,13.11
2023-04-13T09:41:58.390Z,13.12
2023-04-13T09:44:33.198Z,12.91
2023-04-13T09:47:03.110Z,13.09
2023-04-13T09:49:41.142Z,13.29
2023-04-13T09:52:25.256Z,13.38
2023-04-13T09:54:58.866Z,13.36
2023-04-13T09:57:30.553Z,13.53
2023-04-13T10:00:07.189Z,13.11
2023-04-13T10:02:39.657Z,13.18
2023-04-13T10:05:09.791Z,13.05
2023-04-13T10:07:38.251Z,13.28
2023-04-13T10:10:06.794Z,13.00
2023-04-13T10:12:39.134Z,12.78
2023-04-13T10:15:35.721Z,12.84
2023-04-13T10:18:25.037Z,12.83
2023-04-13T10:20:54.100Z,12.74
2023-04-13T10:23:22.037Z,12.68
2023-04-13T10:25:51.637Z,12.66
2023-04-13T10:28:20.702Z,12.61
2023-04-13T10:30:54.093Z,12.65
2023-04-13T10:33:23.066Z,12.73
2023-04-13T10:35:58.897Z,12.84
2023-04-13T10:38:30.093Z,13.01
2023-04-13T10:40:58.746Z,13.09
2023-04-13T10:43:30.996Z,12.96
2023-04-13T10:46:13.882Z,13.30
2023-04-13T10:48:42.375Z,13.34
2023-04-13T10:51:13.235Z,13.08
2023-04-13T10:53:41.177Z,13.27
2023-04-13T10:56:19.283Z,13.36
2023-04-13T10:58:54.270Z,13.38
2023-04-13T11:01:22.754Z,13.42
2023-04-13T11:04:03.958Z,13.25
2023-04-13T11:06:37.939Z,13.20
2023-04-13T11:09:07.256Z,13.41
2023-04-13T11:11:37.365Z,13.20
2023-04-13T11:14:05.102Z,13.29
2023-04-13T11:16:46.210Z,13.47
2023-04-13T11:19:13.709Z,13.45
2023-04-13T11:21:44.836Z,13.53
2023-04-13T11:24:12.581Z,13.51
2023-04-13T11:26:41.658Z,13.50
2023-04-13T11:29:19.162Z,13.57
2023-04-13T11:31:47.218Z,13.41
2023-04-13T11:34:25.861Z,13.35
2023-04-13T11:37:05.240Z,13.32
2023-04-13T11:39:36.330Z,13.43
2023-04-13T11:42:06.134Z,12.96
2023-04-13T11:44:37.646Z,13.40
2023-04-13T11:47:06.607Z,13.30
2023-04-13T11:49:41.305Z,13.16
2023-04-13T11:52:08.898Z,13.37
2023-04-13T11:54:36.436Z,13.37
2023-04-13T11:57:04.047Z,13.42
2023-04-13T11:59:36.428Z,13.28
2023-04-13T12:02:10.632Z,13.57
2023-04-13T12:04:49.234Z,13.37
2023-04-13T12:07:18.351Z,13.67
2023-04-13T12:15:13.760Z,13.76
2023-04-13T12:17:58.156Z,13.90
2023-04-13T12:20:39.901Z,13.86
2023-04-13T12:23:24.785Z,13.99
2023-04-13T12:26:00.081Z,14.01
2023-04-13T12:28:33.654Z,14.25
2023-04-13T12:31:10.117Z,14.17
2023-04-13T12:33:40.470Z,14.34
2023-04-13T12:36:11.417Z,14.49
2023-04-13T12:38:40.193Z,14.42
2023-04-13T12:41:11.034Z,14.55
2023-04-13T12:43:38.542Z,14.55
2023-04-13T12:46:06.074Z,14.45
2023-04-13T12:48:33.460Z,14.60
2023-04-13T12:51:03.293Z,14.45
2023-04-13T12:53:31.166Z,14.48
2023-04-13T12:55:58.517Z,14.53
2023-04-13T12:58:26.680Z,14.54
2023-04-13T13:00:54.334Z,14.55
2023-04-13T13:03:38.581Z,14.55
2023-04-13T13:06:08.258Z,14.69
2023-04-13T13:08:38.430Z,14.74
2023-04-13T13:11:08.510Z,14.68
2023-04-13T13:13:37.787Z,14.94
2023-04-13T13:16:05.591Z,15.00
2023-04-13T13:18:50.277Z,14.99
2023-04-13T13:21:19.547Z,15.11
2023-04-13T13:23:47.027Z,15.19
2023-04-13T13:28:46.285Z,14.86
2023-04-13T13:31:13.672Z,15.01
2023-04-13T13:33:42.838Z,14.96
2023-04-13T13:36:10.990Z,14.98
2023-04-13T13:38:38.372Z,15.15
2023-04-13T13:41:06.642Z,15.23
2023-04-13T13:43:34.116Z,15.17
2023-04-13T13:46:05.966Z,15.02
2023-04-13T13:48:33.922Z,15.11
2023-04-13T13:51:02.135Z,14.90
2023-04-13T13:53:31.894Z,14.88
2023-04-13T13:55:59.353Z,14.97
2023-04-13T13:58:27.547Z,14.89
2023-04-13T14:00:56.040Z,15.10
2023-04-13T14:03:25.287Z,15.02
2023-04-13T14:05:52.933Z,15.15
2023-04-13T14:08:20.845Z,15.02
2023-04-13T14:10:50.004Z,14.98
2023-04-13T14:13:17.818Z,15.09
2023-04-13T14:15:47.442Z,15.14
2023-04-13T14:18:17.073Z,15.20
2023-04-13T14:20:44.618Z,15.13
2023-04-13T14:23:12.359Z,15.19
2023-04-13T14:25:41.377Z,15.26
2023-04-13T14:28:11.302Z,15.40
2023-04-13T14:30:41.813Z,15.38
2023-04-13T14:33:13.690Z,15.36
2023-04-13T14:35:41.628Z,15.38
2023-04-13T14:38:09.817Z,15.36
2023-04-13T14:40:37.423Z,15.22
2023-04-13T14:43:04.952Z,15.12
2023-04-13T14:45:32.849Z,15.02
2023-04-13T14:48:00.308Z,15.15
2023-04-13T14:50:29.060Z,15.19
2023-04-13T14:52:56.648Z,15.13
2023-04-13T14:55:24.448Z,14.95
2023-04-13T14:57:52.036Z,15.16
2023-04-13T15:00:26.398Z,14.94
2023-04-13T15:03:14.125Z,14.99
2023-04-13T15:05:47.499Z,14.99
2023-04-13T15:08:19.744Z,15.02
2023-04-13T15:10:47.200Z,14.90
2023-04-13T15:13:18.675Z,14.91
2023-04-13T15:15:48.331Z,14.83
2023-04-13T15:18:15.942Z,14.76
2023-04-13T15:20:43.694Z,14.67
2023-04-13T15:23:12.067Z,14.68
2023-04-13T15:25:41.641Z,14.60
2023-04-13T15:28:10.601Z,14.40
2023-04-13T15:30:38.998Z,14.39
2023-04-13T15:33:06.826Z,14.37
2023-04-13T15:35:35.656Z,14.38
2023-04-13T15:38:04.461Z,14.18
2023-04-13T15:40:33.981Z,14.08
2023-04-13T15:43:03.281Z,14.20
2023-04-13T15:45:31.409Z,14.30
2023-04-13T15:47:59.952Z,14.35
2023-04-13T15:50:28.211Z,14.39
2023-04-13T15:52:57.183Z,14.30
2023-04-13T15:55:25.359Z,14.34
2023-04-13T15:57:53.970Z,14.40
2023-04-13T16:00:22.178Z,14.34
2023-04-13T16:02:50.433Z,14.43
2023-04-13T16:05:18.868Z,14.23
2023-04-13T16:07:52.732Z,14.28
2023-04-13T16:10:20.890Z,14.22
2023-04-13T16:12:50.382Z,14.20
2023-04-13T16:15:19.476Z,14.26
2023-04-13T16:17:56.935Z,14.25
2023-04-13T16:20:28.515Z,14.23
2023-04-13T16:22:59.461Z,14.14
2023-04-13T16:25:27.486Z,14.15
2023-04-13T16:27:55.652Z,14.07
2023-04-13T16:30:23.785Z,14.21
2023-04-13T16:32:52.244Z,14.05
2023-04-13T16:35:19.763Z,14.08
2023-04-13T16:37:47.137Z,14.10
2023-04-13T16:40:19.554Z,14.01
2023-04-13T16:42:48.862Z,14.14
2023-04-13T16:45:16.301Z,13.90
2023-04-13T16:47:44.245Z,13.85
2023-04-13T16:50:12.720Z,13.76
2023-04-13T16:52:40.701Z,13.40
2023-04-13T16:55:19.478Z,13.41
2023-04-13T16:57:47.256Z,13.37
2023-04-13T17:00:18.278Z,13.38
2023-04-13T17:02:47.920Z,13.62
2023-04-13T17:05:16.240Z,13.67
2023-04-13T17:07:47.607Z,13.70
2023-04-13T17:10:18.550Z,13.83
2023-04-13T17:12:48.253Z,13.82
2023-04-13T17:15:18.499Z,13.79
2023-04-13T17:17:47.248Z,13.70
2023-04-13T17:20:17.049Z,13.58
2023-04-13T17:22:46.181Z,13.76
2023-04-13T17:25:16.490Z,13.75
2023-04-13T17:27:44.313Z,13.76
2023-04-13T17:30:13.602Z,13.54
2023-04-13T17:32:57.751Z,13.40
2023-04-13T17:35:27.256Z,13.24
2023-04-13T17:37:54.615Z,13.24
2023-04-13T17:40:25.757Z,13.10
2023-04-13T17:42:53.198Z,13.13
2023-04-13T17:45:20.843Z,13.21
2023-04-13T17:47:49.484Z,13.42
2023-04-13T17:50:17.420Z,13.43
2023-04-13T17:52:44.956Z,13.54
2023-04-13T17:55:16.385Z,13.48
2023-04-13T17:57:45.111Z,13.59
2023-04-13T18:00:13.259Z,13.54
2023-04-13T18:02:58.530Z,13.50
2023-04-13T18:05:27.819Z,13.55
2023-04-13T18:07:55.347Z,13.64
2023-04-13T18:10:22.778Z,13.57
2023-04-13T18:12:53.748Z,13.70
2023-04-13T18:15:21.261Z,13.56
2023-04-13T18:17:48.759Z,13.48
2023-04-13T18:20:16.227Z,13.33
2023-04-13T18:22:43.627Z,13.33
2023-04-13T18:25:11.412Z,13.48
2023-04-13T18:27:38.892Z,13.40
2023-04-13T18:30:08.772Z,13.38
2023-04-13T18:32:38.209Z,13.25
2023-04-13T18:35:06.321Z,13.27
2023-04-13T18:37:39.442Z,13.26
2023-04-13T18:40:08.529Z,13.01
2023-04-13T18:42:38.414Z,13.14
2023-04-13T18:45:06.944Z,13.02
2023-04-13T18:47:35.362Z,13.08
2023-04-13T18:50:03.054Z,13.00
2023-04-13T18:52:31.124Z,13.02
2023-04-13T18:54:59.101Z,13.01
2023-04-13T18:57:30.217Z,13.02
2023-04-13T18:59:58.846Z,13.09
2023-04-13T19:02:26.391Z,13.04
2023-04-13T19:04:54.251Z,13.14
2023-04-13T19:07:21.794Z,13.10
2023-04-13T19:09:49.774Z,13.16
2023-04-13T19:12:17.294Z,13.20
2023-04-13T19:14:48.775Z,13.26
2023-04-13T19:17:21.058Z,13.26
2023-04-13T19:19:49.147Z,13.19
2023-04-13T19:22:16.612Z,13.25
2023-04-13T19:24:46.413Z,13.17
2023-04-13T19:27:14.152Z,13.19
2023-04-13T19:29:41.760Z,13.12
2023-04-13T19:32:11.815Z,13.20
2023-04-13T19:34:39.841Z,12.84
2023-04-13T19:37:07.317Z,12.79
2023-04-13T19:39:35.198Z,12.73
2023-04-13T19:42:02.724Z,12.70
2023-04-13T19:44:30.524Z,12.73
2023-04-13T19:47:02.017Z,12.69
2023-04-13T19:49:29.866Z,12.78
2023-04-13T19:51:57.273Z,12.76
2023-04-13T19:54:29.172Z,12.87
2023-04-13T19:56:56.753Z,12.81
2023-04-13T19:59:24.142Z,12.94
2023-04-13T20:01:52.185Z,12.98
2023-04-13T20:04:20.709Z,12.98
2023-04-13T20:06:48.138Z,13.04
2023-04-13T20:09:15.726Z,12.95
2023-04-13T20:11:52.626Z,13.04
2023-04-13T20:14:21.148Z,13.07
2023-04-13T20:16:48.735Z,13.12
2023-04-13T20:19:16.387Z,13.25
2023-04-13T20:21:46.790Z,13.18
2023-04-13T20:24:14.355Z,13.26
2023-04-13T20:26:43.659Z,13.30
2023-04-13T20:29:11.330Z,13.35
2023-04-13T20:31:39.075Z,13.37
2023-04-13T20:34:09.778Z,13.38
2023-04-13T20:36:37.399Z,13.43
2023-04-13T20:39:09.580Z,13.53
2023-04-13T20:41:39.001Z,13.53
2023-04-13T20:44:09.969Z,13.43
2023-04-13T20:46:42.009Z,13.50
2023-04-13T20:49:11.949Z,13.49
2023-04-13T20:51:39.805Z,13.52
2023-04-13T20:54:07.478Z,13.46
2023-04-13T20:56:38.451Z,13.52
2023-04-13T20:59:07.567Z,13.46
2023-04-13T21:01:35.533Z,13.59
2023-04-13T21:04:03.851Z,13.41
2023-04-13T21:06:31.983Z,13.45
2023-04-13T21:08:59.572Z,13.40
2023-04-13T21:11:27.521Z,13.36
2023-04-13T21:13:55.006Z,13.27
2023-04-13T21:16:25.840Z,13.36
2023-04-13T21:18:54.462Z,13.30
2023-04-13T21:21:23.468Z,13.35
2023-04-13T21:23:51.295Z,13.32
2023-04-13T21:26:18.889Z,13.33
2023-04-13T21:28:47.842Z,13.21
2023-04-13T21:31:15.645Z,13.09
2023-04-13T21:33:43.238Z,13.17
2023-04-13T21:38:41.956Z,13.21
2023-04-13T21:41:16.029Z,13.17
2023-04-13T21:43:43.926Z,13.18
2023-04-13T21:46:13.776Z,13.26
2023-04-13T21:48:41.937Z,13.07
2023-04-13T21:51:09.895Z,13.03
2023-04-13T21:53:39.064Z,13.07
2023-04-13T21:56:07.056Z,12.97
2023-04-13T21:58:39.573Z,13.11
2023-04-13T22:01:07.455Z,13.10
2023-04-13T22:03:37.540Z,12.90
2023-04-13T22:06:07.140Z,12.91
2023-04-13T22:08:36.169Z,12.92
2023-04-13T22:11:04.087Z,12.93
2023-04-13T22:13:32.200Z,12.84
2023-04-13T22:16:02.732Z,12.84
2023-04-13T22:18:30.314Z,12.76
2023-04-13T22:20:59.863Z,12.80
2023-04-13T22:23:29.546Z,12.78
2023-04-13T22:26:03.891Z,12.73
2023-04-13T22:28:32.059Z,12.72
2023-04-13T22:31:06.996Z,12.65
2023-04-13T22:33:40.424Z,12.64
2023-04-13T22:36:17.666Z,12.62
2023-04-13T22:38:48.992Z,12.73
2023-04-13T22:41:17.661Z,12.74
2023-04-13T22:43:45.068Z,12.54
2023-04-13T22:46:12.506Z,12.60
2023-04-13T22:48:40.918Z,12.50
2023-04-13T22:51:08.519Z,12.82
2023-04-13T22:53:36.034Z,12.89
2023-04-13T22:56:05.637Z,12.94
2023-04-13T22:58:33.099Z,13.06
2023-04-13T23:01:01.468Z,12.98
2023-04-13T23:03:30.239Z,12.91
2023-04-13T23:05:59.002Z,12.84
2023-04-13T23:08:26.394Z,12.77
2023-04-13T23:10:56.285Z,12.80
2023-04-13T23:13:24.371Z,12.80
2023-04-13T23:15:59.446Z,12.86
2023-04-13T23:18:28.135Z,12.66
2023-04-13T23:20:56.027Z,12.85
2023-04-13T23:23:23.806Z,12.92
2023-04-13T23:25:51.525Z,12.94
2023-04-13T23:28:19.369Z,12.84
2023-04-13T23:30:50.640Z,13.03
2023-04-13T23:33:18.398Z,12.79
2023-04-13T23:35:52.453Z,12.84
2023-04-13T23:38:22.235Z,12.95
2023-04-13T23:40:50.304Z,12.93
2023-04-13T23:43:17.644Z,13.11
2023-04-13T23:45:45.054Z,12.92
2023-04-13T23:48:12.874Z,13.04
2023-04-13T23:50:40.281Z,13.03
2023-04-13T23:53:08.022Z,13.02
2023-04-13T23:55:35.542Z,12.94
2023-04-13T23:58:13.018Z,13.09
